Terminal Aerodrome Forecast
Issued by NWS Wilmington, OH

Current Version | Previous Version | Text Only | Print | Product List | Glossary Off
Versions: 1 2 3 4 5 6 7 8 9 10 11 12 13 14 15 16 17 18 19 20 21 22 23

000
FTUS41 KILN 180500
TAFILN
TAF
KILN 180533Z 1806/1906 25014KT P6SM SCT035
     FM181000 26015KT 6SM -SHSN BR SCT025 BKN040
      TEMPO 1810/1813 2SM -SHSN BR BKN025
     FM181300 24012KT P6SM SCT025
     FM181500 24012G20KT P6SM SCT025
     FM181700 23012G20KT P6SM VCSH BKN030
     FM182300 22008KT P6SM SKC=

USA.gov is the U.S. government's official web portal to all federal, state and local government web resources and services.